createdAt,value
2018-03-23T00:00:15.878Z,0
2018-03-23T00:00:56.407Z,0
2018-03-23T00:01:36.935Z,0
2018-03-23T00:02:17.451Z,0
2018-03-23T00:02:57.962Z,0
2018-03-23T00:03:38.481Z,0
2018-03-23T00:04:18.989Z,0
2018-03-23T00:04:59.518Z,0
2018-03-23T00:05:40.041Z,0
2018-03-23T00:06:20.561Z,0
2018-03-23T00:07:01.068Z,0
2018-03-23T00:07:41.576Z,0
2018-03-23T00:08:22.100Z,0
2018-03-23T00:09:02.603Z,0
2018-03-23T00:09:43.146Z,0
2018-03-23T00:10:23.656Z,0
2018-03-23T00:11:04.174Z,0
2018-03-23T00:11:44.694Z,0
2018-03-23T00:12:25.214Z,0
2018-03-23T00:13:05.723Z,0
2018-03-23T00:13:46.242Z,0
2018-03-23T00:14:26.759Z,0
2018-03-23T00:15:07.268Z,0
2018-03-23T00:15:47.808Z,0
2018-03-23T00:16:28.348Z,0
2018-03-23T00:17:08.866Z,0
2018-03-23T00:17:49.384Z,0
2018-03-23T00:18:29.894Z,0
2018-03-23T00:19:10.474Z,0
2018-03-23T00:19:50.920Z,0
2018-03-23T00:20:31.439Z,0
2018-03-23T00:21:11.947Z,0
2018-03-23T00:21:52.461Z,0
2018-03-23T00:22:32.980Z,0
2018-03-23T00:23:13.509Z,0
2018-03-23T00:23:54.011Z,0
2018-03-23T00:24:34.542Z,0
2018-03-23T00:25:15.052Z,0
2018-03-23T00:25:55.557Z,0
2018-03-23T00:26:36.058Z,0
2018-03-23T00:27:16.574Z,0
2018-03-23T00:27:57.089Z,0
2018-03-23T00:28:37.593Z,0
2018-03-23T00:29:18.107Z,0
2018-03-23T00:29:58.624Z,0
2018-03-23T00:30:39.164Z,0
2018-03-23T00:31:19.676Z,0
2018-03-23T00:32:00.204Z,0
2018-03-23T00:32:40.707Z,0
2018-03-23T00:33:21.229Z,0
2018-03-23T00:34:01.740Z,0
2018-03-23T00:34:42.251Z,0
2018-03-23T00:35:22.765Z,0
2018-03-23T00:36:03.286Z,0
2018-03-23T00:36:43.806Z,0
2018-03-23T00:37:24.339Z,0
2018-03-23T00:38:04.822Z,0
2018-03-23T00:38:45.340Z,0
2018-03-23T00:39:25.897Z,0
2018-03-23T00:40:06.405Z,0
2018-03-23T00:40:47.023Z,0
2018-03-23T00:41:27.578Z,0
2018-03-23T00:42:08.155Z,0
2018-03-23T00:42:48.680Z,0
2018-03-23T00:43:29.193Z,0
2018-03-23T00:44:09.709Z,0
2018-03-23T00:44:50.220Z,0
2018-03-23T00:45:30.729Z,0
2018-03-23T00:46:11.242Z,0
2018-03-23T00:46:51.758Z,0
2018-03-23T00:47:32.277Z,0
2018-03-23T00:48:12.806Z,0
2018-03-23T00:48:53.327Z,0
2018-03-23T00:49:33.834Z,0
2018-03-23T00:50:14.343Z,0
2018-03-23T00:50:54.860Z,0
2018-03-23T00:51:35.371Z,0
2018-03-23T00:52:15.890Z,0
2018-03-23T00:52:56.404Z,0
2018-03-23T00:53:36.922Z,0
2018-03-23T00:54:17.442Z,0
2018-03-23T00:54:58.046Z,0
2018-03-23T00:55:38.572Z,0
2018-03-23T00:56:19.097Z,0
2018-03-23T00:56:59.631Z,0
2018-03-23T00:57:40.144Z,0
2018-03-23T00:58:20.676Z,0
2018-03-23T00:59:01.185Z,0
2018-03-23T00:59:41.698Z,0
2018-03-23T01:00:22.216Z,0
2018-03-23T01:01:02.726Z,0
2018-03-23T01:01:43.248Z,0
2018-03-23T01:02:23.759Z,0
2018-03-23T01:03:04.262Z,0
2018-03-23T01:03:44.775Z,0
2018-03-23T01:04:25.308Z,0
2018-03-23T01:05:05.835Z,0
2018-03-23T01:05:46.343Z,0
2018-03-23T01:06:26.868Z,0
2018-03-23T01:07:07.358Z,0
2018-03-23T01:07:47.874Z,0
2018-03-23T01:08:28.387Z,0
2018-03-23T01:09:08.920Z,0
2018-03-23T01:09:49.446Z,0
2018-03-23T01:10:29.942Z,0
2018-03-23T01:11:10.471Z,0
2018-03-23T01:11:50.978Z,0
2018-03-23T01:12:31.492Z,0
2018-03-23T01:13:11.996Z,0
2018-03-23T01:13:52.503Z,0
2018-03-23T01:14:33.077Z,0
2018-03-23T01:15:13.525Z,0
2018-03-23T01:15:54.063Z,0
2018-03-23T01:16:34.583Z,0
2018-03-23T01:17:15.098Z,0
2018-03-23T01:17:55.624Z,0
2018-03-23T01:18:36.142Z,0
2018-03-23T01:19:16.645Z,0
2018-03-23T01:19:57.156Z,0
2018-03-23T01:20:37.674Z,0
2018-03-23T01:21:18.199Z,0
2018-03-23T01:21:58.705Z,0
2018-03-23T01:22:39.217Z,0
2018-03-23T01:23:19.732Z,0
2018-03-23T01:24:00.241Z,0
2018-03-23T01:24:40.779Z,0
2018-03-23T01:25:21.285Z,0
2018-03-23T01:26:01.796Z,0
2018-03-23T01:26:42.323Z,0
2018-03-23T01:27:22.834Z,0
2018-03-23T01:28:03.353Z,0
2018-03-23T01:28:43.885Z,0
2018-03-23T01:29:24.412Z,0
2018-03-23T01:30:04.924Z,0
2018-03-23T01:30:45.422Z,0
2018-03-23T01:31:25.996Z,0
2018-03-23T01:32:06.452Z,0
2018-03-23T01:32:46.964Z,0
2018-03-23T01:33:27.478Z,0
2018-03-23T01:34:07.996Z,0
2018-03-23T01:34:48.507Z,0
2018-03-23T01:35:29.029Z,0
2018-03-23T01:36:09.546Z,0
2018-03-23T01:36:50.060Z,0
2018-03-23T01:37:30.578Z,0
2018-03-23T01:38:11.117Z,0
2018-03-23T01:38:51.611Z,0
2018-03-23T01:39:32.118Z,0
2018-03-23T01:40:12.631Z,0
2018-03-23T01:40:53.155Z,0
2018-03-23T01:41:33.670Z,0
2018-03-23T01:42:14.197Z,0
2018-03-23T01:42:54.718Z,0
2018-03-23T01:43:35.236Z,0
2018-03-23T01:44:15.759Z,0
2018-03-23T01:44:56.268Z,0
2018-03-23T01:45:36.777Z,0
2018-03-23T01:46:17.293Z,0
2018-03-23T01:46:57.804Z,0
2018-03-23T01:47:38.318Z,0
2018-03-23T01:48:18.803Z,0
2018-03-23T01:48:59.315Z,0
2018-03-23T01:49:39.817Z,0
2018-03-23T01:50:20.344Z,0
2018-03-23T01:51:00.847Z,0
2018-03-23T01:51:41.360Z,0
2018-03-23T01:52:21.880Z,0
2018-03-23T01:53:02.385Z,0
2018-03-23T01:53:42.905Z,0
2018-03-23T01:54:23.412Z,0
2018-03-23T01:55:03.927Z,0
2018-03-23T01:55:44.455Z,0
2018-03-23T01:56:25.017Z,0
2018-03-23T01:57:05.580Z,0
2018-03-23T01:57:46.048Z,0
2018-03-23T01:58:26.562Z,0
2018-03-23T01:59:07.076Z,0
2018-03-23T01:59:48.082Z,0
2018-03-23T02:00:28.098Z,0
2018-03-23T02:01:08.597Z,0
2018-03-23T02:01:49.118Z,0
2018-03-23T02:02:29.633Z,0
2018-03-23T02:03:10.147Z,0
2018-03-23T02:03:50.665Z,0
2018-03-23T02:04:31.177Z,0
2018-03-23T02:05:11.697Z,0
2018-03-23T02:05:52.200Z,0
2018-03-23T02:06:32.717Z,0
2018-03-23T02:07:13.240Z,0
2018-03-23T02:07:53.757Z,0
2018-03-23T02:08:34.271Z,0
2018-03-23T02:09:14.779Z,0
2018-03-23T02:09:55.401Z,0
2018-03-23T02:10:35.902Z,0
2018-03-23T02:11:16.406Z,0
2018-03-23T02:11:56.921Z,0
2018-03-23T02:12:37.440Z,0
2018-03-23T02:13:17.956Z,0
2018-03-23T02:13:58.483Z,0
2018-03-23T02:14:38.993Z,0
2018-03-23T02:15:19.513Z,0
2018-03-23T02:16:00.030Z,0
2018-03-23T02:16:40.544Z,0
2018-03-23T02:17:21.045Z,0
2018-03-23T02:18:01.573Z,0
2018-03-23T02:18:42.094Z,0
2018-03-23T02:19:22.612Z,0
2018-03-23T02:20:03.091Z,0
2018-03-23T02:20:43.605Z,0
2018-03-23T02:21:24.125Z,0
2018-03-23T02:22:04.654Z,0
2018-03-23T02:22:45.173Z,0
2018-03-23T02:23:25.733Z,0
2018-03-23T02:24:06.219Z,0
2018-03-23T02:24:46.735Z,0
2018-03-23T02:25:27.253Z,0
2018-03-23T02:26:07.768Z,0
2018-03-23T02:26:48.294Z,0
2018-03-23T02:27:28.813Z,0
2018-03-23T02:28:09.331Z,0
2018-03-23T02:28:49.847Z,0
2018-03-23T02:29:30.351Z,0
2018-03-23T02:30:10.865Z,0
2018-03-23T02:30:51.378Z,0
2018-03-23T02:31:31.876Z,0
2018-03-23T02:32:12.384Z,0
2018-03-23T02:32:52.907Z,0
2018-03-23T02:33:33.401Z,0
2018-03-23T02:34:13.902Z,0
2018-03-23T02:34:54.427Z,0
2018-03-23T02:35:34.920Z,0
2018-03-23T02:36:15.446Z,0
2018-03-23T02:36:55.943Z,0
2018-03-23T02:37:36.458Z,0
2018-03-23T02:38:16.972Z,0
2018-03-23T02:38:57.484Z,0
2018-03-23T02:39:37.981Z,0
2018-03-23T02:40:18.482Z,0
2018-03-23T02:40:59.027Z,0
2018-03-23T02:41:39.546Z,0
2018-03-23T02:42:20.056Z,0
2018-03-23T02:43:00.578Z,0
2018-03-23T02:43:41.098Z,0
2018-03-23T02:44:21.599Z,0
2018-03-23T02:45:02.112Z,0
2018-03-23T02:45:42.640Z,0
2018-03-23T02:46:23.143Z,0
2018-03-23T02:47:03.661Z,0
2018-03-23T02:47:44.244Z,0
2018-03-23T02:48:24.752Z,0
2018-03-23T02:49:05.297Z,0
2018-03-23T02:49:45.802Z,0
2018-03-23T02:50:26.318Z,0
2018-03-23T02:51:06.844Z,0
2018-03-23T02:51:47.335Z,0
2018-03-23T02:52:27.864Z,0
2018-03-23T02:53:08.375Z,0
2018-03-23T02:53:48.909Z,0
2018-03-23T02:54:29.423Z,0
2018-03-23T02:55:09.938Z,0
2018-03-23T02:55:50.439Z,0
2018-03-23T02:56:30.948Z,0
2018-03-23T02:57:11.465Z,0
2018-03-23T02:57:51.979Z,0
2018-03-23T02:58:32.490Z,0
2018-03-23T02:59:12.993Z,0
2018-03-23T02:59:53.515Z,0
2018-03-23T03:00:34.032Z,0
2018-03-23T03:01:14.581Z,0
2018-03-23T03:01:55.097Z,0
2018-03-23T03:02:35.614Z,0
2018-03-23T03:03:16.133Z,0
2018-03-23T03:03:56.634Z,0
2018-03-23T03:04:37.140Z,0
2018-03-23T03:05:17.647Z,0
2018-03-23T03:05:58.145Z,0
2018-03-23T03:06:38.661Z,0
2018-03-23T03:07:19.166Z,0
2018-03-23T03:07:59.681Z,0
2018-03-23T03:08:40.194Z,0
2018-03-23T03:09:20.700Z,0
2018-03-23T03:10:01.231Z,0
2018-03-23T03:10:41.748Z,0
2018-03-23T03:11:22.267Z,0
2018-03-23T03:12:02.780Z,0
2018-03-23T03:12:43.292Z,0
2018-03-23T03:13:23.808Z,0
2018-03-23T03:14:04.325Z,0
2018-03-23T03:14:44.836Z,0
2018-03-23T03:15:25.349Z,0
2018-03-23T03:16:05.880Z,0
2018-03-23T03:16:46.383Z,0
2018-03-23T03:17:26.900Z,0
2018-03-23T03:18:07.426Z,0
2018-03-23T03:18:47.936Z,0
2018-03-23T03:19:28.459Z,0
2018-03-23T03:20:08.978Z,0
2018-03-23T03:20:49.488Z,0
2018-03-23T03:21:30.005Z,0
2018-03-23T03:22:10.506Z,0
2018-03-23T03:22:51.012Z,0
2018-03-23T03:23:31.525Z,0
2018-03-23T03:24:12.036Z,0
2018-03-23T03:24:52.543Z,0
2018-03-23T03:25:33.052Z,0
2018-03-23T03:26:13.569Z,0
2018-03-23T03:26:54.088Z,0
2018-03-23T03:27:34.602Z,0
2018-03-23T03:28:15.118Z,0
2018-03-23T03:28:55.625Z,0
2018-03-23T03:29:36.143Z,0
2018-03-23T03:30:16.654Z,0
2018-03-23T03:30:57.165Z,0
2018-03-23T03:31:37.673Z,0
2018-03-23T03:32:18.192Z,0
2018-03-23T03:32:58.719Z,0
2018-03-23T03:33:39.220Z,0
2018-03-23T03:34:19.737Z,0
2018-03-23T03:35:00.250Z,0
2018-03-23T03:35:40.790Z,0
2018-03-23T03:36:21.307Z,0
2018-03-23T03:37:01.826Z,0
2018-03-23T03:37:42.369Z,0
2018-03-23T03:38:22.863Z,0
2018-03-23T03:39:03.382Z,0
2018-03-23T03:39:43.945Z,0
2018-03-23T03:40:24.429Z,0
2018-03-23T03:41:04.933Z,0
2018-03-23T03:41:45.467Z,0
2018-03-23T03:42:25.978Z,0
2018-03-23T03:43:06.492Z,0
2018-03-23T03:43:47.017Z,0
2018-03-23T03:44:27.537Z,0
2018-03-23T03:45:08.046Z,0
2018-03-23T03:45:48.552Z,0
2018-03-23T03:46:29.094Z,0
2018-03-23T03:47:09.605Z,0
2018-03-23T03:47:50.107Z,0
2018-03-23T03:48:30.616Z,0
2018-03-23T03:49:11.141Z,0
2018-03-23T03:49:51.680Z,0
2018-03-23T03:50:32.206Z,0
2018-03-23T03:51:12.713Z,0
2018-03-23T03:51:53.236Z,0
2018-03-23T03:52:33.739Z,0
2018-03-23T03:53:14.250Z,0
2018-03-23T03:53:54.776Z,0
2018-03-23T03:54:35.280Z,0
2018-03-23T03:55:15.789Z,0
2018-03-23T03:55:56.304Z,0
2018-03-23T03:56:36.815Z,0
2018-03-23T03:57:17.323Z,0
2018-03-23T03:57:57.843Z,0
2018-03-23T03:58:38.363Z,0
2018-03-23T03:59:18.886Z,0
2018-03-23T03:59:59.404Z,0
2018-03-23T04:00:39.919Z,0
2018-03-23T04:01:20.437Z,0
2018-03-23T04:02:00.961Z,0
2018-03-23T04:02:41.478Z,0
2018-03-23T04:03:21.986Z,0
2018-03-23T04:04:02.516Z,0
2018-03-23T04:04:43.054Z,0
2018-03-23T04:05:23.572Z,0
2018-03-23T04:06:04.088Z,0
2018-03-23T04:06:44.612Z,0
2018-03-23T04:07:25.114Z,0
2018-03-23T04:08:05.627Z,0
2018-03-23T04:08:46.136Z,0
2018-03-23T04:09:26.640Z,0
2018-03-23T04:10:07.135Z,0
2018-03-23T04:10:47.641Z,0
2018-03-23T04:11:28.160Z,0
2018-03-23T04:12:08.659Z,0
2018-03-23T04:12:49.172Z,0
2018-03-23T04:13:29.689Z,0
2018-03-23T04:14:10.205Z,0
2018-03-23T04:14:50.709Z,0
2018-03-23T04:15:31.223Z,0
2018-03-23T04:16:11.735Z,0
2018-03-23T04:16:52.261Z,0
2018-03-23T04:17:32.777Z,0
2018-03-23T04:18:13.289Z,0
2018-03-23T04:18:53.804Z,0
2018-03-23T04:19:34.328Z,0
2018-03-23T04:20:14.842Z,0
2018-03-23T04:20:55.359Z,0
2018-03-23T04:21:35.870Z,0
2018-03-23T04:22:16.398Z,0
2018-03-23T04:22:56.904Z,0
2018-03-23T04:23:37.416Z,0
2018-03-23T04:24:17.933Z,0
2018-03-23T04:24:58.455Z,0
2018-03-23T04:25:38.951Z,0
2018-03-23T04:26:19.486Z,0
2018-03-23T04:27:00.014Z,0
2018-03-23T04:27:40.529Z,0
2018-03-23T04:28:21.046Z,0
2018-03-23T04:29:01.552Z,0
2018-03-23T04:29:42.068Z,0
2018-03-23T04:30:22.583Z,0
2018-03-23T04:31:03.105Z,0
2018-03-23T04:31:43.611Z,0
2018-03-23T04:32:24.114Z,0
2018-03-23T04:33:04.624Z,0
2018-03-23T04:33:45.155Z,0
2018-03-23T04:34:25.660Z,0
2018-03-23T04:35:06.199Z,0
2018-03-23T04:35:46.694Z,0
2018-03-23T04:36:27.210Z,0
2018-03-23T04:37:07.720Z,0
2018-03-23T04:37:48.230Z,0
2018-03-23T04:38:28.744Z,0
2018-03-23T04:39:09.262Z,0
2018-03-23T04:39:49.793Z,0
2018-03-23T04:40:30.306Z,0
2018-03-23T04:41:10.821Z,0
2018-03-23T04:41:51.334Z,0
2018-03-23T04:42:31.839Z,0
2018-03-23T04:43:12.346Z,0
2018-03-23T04:43:52.868Z,0
2018-03-23T04:44:33.369Z,0
2018-03-23T04:45:13.884Z,0
2018-03-23T04:45:54.405Z,0
2018-03-23T04:46:34.938Z,0
2018-03-23T04:47:15.447Z,0
2018-03-23T04:47:56.043Z,0
2018-03-23T04:48:36.575Z,0
2018-03-23T04:49:17.069Z,0
2018-03-23T04:49:57.598Z,0
2018-03-23T04:50:38.084Z,0
2018-03-23T04:51:18.598Z,0
2018-03-23T04:51:59.129Z,0
2018-03-23T04:52:39.656Z,0
2018-03-23T04:53:20.175Z,0
2018-03-23T04:54:00.678Z,0
2018-03-23T04:54:41.192Z,0
2018-03-23T04:55:21.712Z,0
2018-03-23T04:56:02.222Z,0
2018-03-23T04:56:42.723Z,0
2018-03-23T04:57:23.237Z,0
2018-03-23T04:58:03.743Z,0
2018-03-23T04:58:44.276Z,0
2018-03-23T04:59:24.795Z,0
2018-03-23T05:00:05.309Z,0
2018-03-23T05:00:45.817Z,0
2018-03-23T05:01:26.354Z,0
2018-03-23T05:02:06.867Z,0
2018-03-23T05:02:47.377Z,0
2018-03-23T05:03:27.902Z,0
2018-03-23T05:04:08.405Z,0
2018-03-23T05:04:48.906Z,0
2018-03-23T05:05:29.475Z,0
2018-03-23T05:06:09.988Z,0
2018-03-23T05:06:50.560Z,0
2018-03-23T05:07:31.077Z,0
2018-03-23T05:08:11.625Z,0
2018-03-23T05:08:52.149Z,0
2018-03-23T05:09:32.653Z,0
2018-03-23T05:10:13.186Z,0
2018-03-23T05:10:53.707Z,0
2018-03-23T05:11:34.228Z,0
2018-03-23T05:12:14.760Z,0
2018-03-23T05:12:55.287Z,0
2018-03-23T05:13:35.810Z,0
2018-03-23T05:14:16.364Z,0
2018-03-23T05:14:56.875Z,0
2018-03-23T05:15:37.402Z,0
2018-03-23T05:16:17.906Z,0
2018-03-23T05:16:58.429Z,0
2018-03-23T05:17:38.942Z,0
2018-03-23T05:18:19.458Z,0
2018-03-23T05:18:59.995Z,0
2018-03-23T05:19:40.499Z,0
2018-03-23T05:20:21.015Z,0
2018-03-23T05:21:01.532Z,0
2018-03-23T05:21:42.037Z,0
2018-03-23T05:22:22.548Z,0
2018-03-23T05:23:03.069Z,0
2018-03-23T05:23:43.579Z,0
2018-03-23T05:24:24.090Z,0
2018-03-23T05:25:04.607Z,0
2018-03-23T05:25:45.156Z,0
2018-03-23T05:26:25.669Z,0
2018-03-23T05:27:06.176Z,0
2018-03-23T05:27:46.689Z,0
2018-03-23T05:28:27.209Z,0
2018-03-23T05:29:07.725Z,0
2018-03-23T05:29:48.240Z,0
2018-03-23T05:30:28.751Z,0
2018-03-23T05:31:09.289Z,0
2018-03-23T05:31:49.797Z,0
2018-03-23T05:32:30.381Z,0
2018-03-23T05:33:10.907Z,0
2018-03-23T05:33:51.582Z,0
2018-03-23T05:34:32.113Z,0
2018-03-23T05:35:12.617Z,0
2018-03-23T05:35:53.126Z,0
2018-03-23T05:36:33.641Z,0
2018-03-23T05:37:14.162Z,0
2018-03-23T05:37:54.670Z,0
2018-03-23T05:38:35.180Z,0
2018-03-23T05:39:15.702Z,0
2018-03-23T05:39:56.293Z,0
2018-03-23T05:40:36.886Z,0
2018-03-23T05:41:17.388Z,0
2018-03-23T05:41:57.910Z,0
2018-03-23T05:42:38.421Z,5
2018-03-23T05:43:18.943Z,5
2018-03-23T05:43:59.469Z,5
2018-03-23T05:44:39.984Z,5
2018-03-23T05:45:20.513Z,5
2018-03-23T05:46:01.012Z,5
2018-03-23T05:46:41.570Z,5
2018-03-23T05:47:22.099Z,5
2018-03-23T05:48:02.623Z,5
2018-03-23T05:48:43.136Z,5
2018-03-23T05:49:23.711Z,5
2018-03-23T05:50:04.193Z,5
2018-03-23T05:50:44.705Z,5
2018-03-23T05:51:25.215Z,5
2018-03-23T05:52:05.711Z,5
2018-03-23T05:52:46.236Z,5
2018-03-23T05:53:26.740Z,10
2018-03-23T05:54:07.276Z,10
2018-03-23T05:54:47.789Z,10
2018-03-23T05:55:28.288Z,10
2018-03-23T05:56:08.808Z,10
2018-03-23T05:56:49.322Z,10
2018-03-23T05:57:29.828Z,10
2018-03-23T05:58:10.339Z,10
2018-03-23T05:58:50.860Z,10
2018-03-23T05:59:31.423Z,10
2018-03-23T06:00:11.944Z,10
2018-03-23T06:00:52.448Z,10
2018-03-23T06:01:32.979Z,10
2018-03-23T06:02:13.484Z,10
2018-03-23T06:02:53.998Z,10
2018-03-23T06:03:34.505Z,10
2018-03-23T06:04:15.024Z,15
2018-03-23T06:04:55.547Z,15
2018-03-23T06:05:36.065Z,15
2018-03-23T06:06:16.669Z,15
2018-03-23T06:06:57.190Z,15
2018-03-23T06:07:37.701Z,15
2018-03-23T06:08:18.227Z,15
2018-03-23T06:08:58.769Z,15
2018-03-23T06:09:39.287Z,10
2018-03-23T06:10:19.802Z,10
2018-03-23T06:11:00.315Z,10
2018-03-23T06:11:40.832Z,10
2018-03-23T06:12:22.131Z,10
2018-03-23T06:13:01.873Z,10
2018-03-23T06:13:42.467Z,15
2018-03-23T06:14:22.970Z,15
2018-03-23T06:15:03.499Z,15
2018-03-23T06:15:44.008Z,15
2018-03-23T06:16:24.524Z,15
2018-03-23T06:17:05.018Z,15
2018-03-23T06:17:45.544Z,15
2018-03-23T06:18:26.080Z,15
2018-03-23T06:19:06.596Z,15
2018-03-23T06:19:47.101Z,15
2018-03-23T06:20:27.607Z,15
2018-03-23T06:21:08.115Z,15
2018-03-23T06:21:48.636Z,15
2018-03-23T06:22:29.172Z,15
2018-03-23T06:23:09.699Z,15
2018-03-23T06:23:50.227Z,20
2018-03-23T06:24:30.718Z,15
2018-03-23T06:25:11.227Z,15
2018-03-23T06:25:51.740Z,15
2018-03-23T06:26:32.266Z,15
2018-03-23T06:27:12.783Z,20
2018-03-23T06:27:53.323Z,20
2018-03-23T06:28:33.825Z,20
2018-03-23T06:29:14.341Z,20
2018-03-23T06:29:54.851Z,20
2018-03-23T06:30:35.371Z,20
2018-03-23T06:31:15.896Z,25
2018-03-23T06:31:56.413Z,25
2018-03-23T06:32:36.958Z,25
2018-03-23T06:33:17.462Z,25
2018-03-23T06:33:58.038Z,25
2018-03-23T06:34:38.491Z,25
2018-03-23T06:35:19.003Z,25
2018-03-23T06:35:59.558Z,25
2018-03-23T06:36:40.069Z,20
2018-03-23T06:37:20.592Z,20
2018-03-23T06:38:01.109Z,20
2018-03-23T06:38:41.610Z,20
2018-03-23T06:39:22.120Z,20
2018-03-23T06:40:02.637Z,20
2018-03-23T06:40:43.163Z,20
2018-03-23T06:41:23.729Z,20
2018-03-23T06:42:04.194Z,20
2018-03-23T06:42:44.716Z,20
2018-03-23T06:43:25.243Z,20
2018-03-23T06:44:05.755Z,20
2018-03-23T06:44:46.282Z,20
2018-03-23T06:45:26.799Z,20
2018-03-23T06:46:07.385Z,20
2018-03-23T06:46:47.894Z,20
2018-03-23T06:47:28.424Z,25
2018-03-23T06:48:08.932Z,25
2018-03-23T06:48:49.450Z,25
2018-03-23T06:49:29.949Z,25
2018-03-23T06:50:10.456Z,25
2018-03-23T06:50:50.966Z,25
2018-03-23T06:51:31.488Z,30
2018-03-23T06:52:12.002Z,25
2018-03-23T06:52:52.518Z,25
2018-03-23T06:53:33.022Z,25
2018-03-23T06:54:13.550Z,25
2018-03-23T06:54:54.066Z,25
2018-03-23T06:55:34.579Z,25
2018-03-23T06:56:15.085Z,25
2018-03-23T06:56:55.603Z,25
2018-03-23T06:57:36.122Z,25
2018-03-23T06:58:16.659Z,30
2018-03-23T06:58:57.162Z,30
2018-03-23T06:59:37.666Z,30
2018-03-23T07:00:18.272Z,30
2018-03-23T07:00:58.790Z,35
2018-03-23T07:01:39.316Z,35
2018-03-23T07:02:19.842Z,35
2018-03-23T07:03:00.360Z,35
2018-03-23T07:03:40.870Z,35
2018-03-23T07:04:21.393Z,35
2018-03-23T07:05:01.912Z,35
2018-03-23T07:05:42.414Z,35
2018-03-23T07:06:22.920Z,35
2018-03-23T07:07:03.427Z,35
2018-03-23T07:07:43.937Z,35
2018-03-23T07:08:24.470Z,35
2018-03-23T07:09:04.982Z,35
2018-03-23T07:09:45.500Z,35
2018-03-23T07:10:26.032Z,35
2018-03-23T07:11:06.544Z,35
2018-03-23T07:11:47.056Z,35
2018-03-23T07:12:27.569Z,35
2018-03-23T07:13:08.092Z,35
2018-03-23T07:13:48.660Z,40
2018-03-23T07:14:29.173Z,40
2018-03-23T07:15:09.687Z,40
2018-03-23T07:15:50.199Z,40
2018-03-23T07:16:30.720Z,45
2018-03-23T07:17:11.260Z,45
2018-03-23T07:17:51.793Z,45
2018-03-23T07:18:32.304Z,45
2018-03-23T07:19:12.841Z,40
2018-03-23T07:19:53.377Z,45
2018-03-23T07:20:33.911Z,40
2018-03-23T07:21:14.416Z,40
2018-03-23T07:21:54.926Z,40
2018-03-23T07:22:35.436Z,35
2018-03-23T07:23:15.946Z,35
2018-03-23T07:23:56.497Z,35
2018-03-23T07:24:36.987Z,30
2018-03-23T07:25:17.509Z,25
2018-03-23T07:25:58.023Z,30
2018-03-23T07:26:38.540Z,25
2018-03-23T07:27:19.064Z,30
2018-03-23T07:27:59.581Z,30
2018-03-23T07:28:40.112Z,35
2018-03-23T07:29:20.646Z,35
2018-03-23T07:30:01.152Z,40
2018-03-23T07:30:41.662Z,45
2018-03-23T07:31:22.167Z,45
2018-03-23T07:32:02.708Z,50
2018-03-23T07:32:44.156Z,50
2018-03-23T07:33:23.731Z,55
2018-03-23T07:34:04.248Z,55
2018-03-23T07:34:44.819Z,55
2018-03-23T07:35:25.376Z,55
2018-03-23T07:36:05.897Z,50
2018-03-23T07:36:46.420Z,50
2018-03-23T07:37:26.935Z,50
2018-03-23T07:38:07.452Z,50
2018-03-23T07:38:47.978Z,45
2018-03-23T07:39:28.487Z,45
2018-03-23T07:40:09.001Z,50
2018-03-23T07:40:49.525Z,50
2018-03-23T07:41:30.057Z,50
2018-03-23T07:42:10.586Z,50
2018-03-23T07:42:51.114Z,55
2018-03-23T07:43:31.645Z,55
2018-03-23T07:44:12.135Z,60
2018-03-23T07:44:52.652Z,60
2018-03-23T07:45:33.200Z,60
2018-03-23T07:46:13.710Z,65
2018-03-23T07:46:54.209Z,70
2018-03-23T07:47:34.760Z,70
2018-03-23T07:48:15.285Z,80
2018-03-23T07:48:55.783Z,80
2018-03-23T07:49:36.319Z,80
2018-03-23T07:50:16.832Z,75
2018-03-23T07:50:57.351Z,75
2018-03-23T07:51:37.862Z,70
2018-03-23T07:52:18.385Z,65
2018-03-23T07:52:58.912Z,60
2018-03-23T07:53:39.438Z,60
2018-03-23T07:54:19.953Z,60
2018-03-23T07:55:00.461Z,60
2018-03-23T07:55:41.010Z,65
2018-03-23T07:56:21.527Z,65
2018-03-23T07:57:02.043Z,65
2018-03-23T07:57:42.567Z,60
2018-03-23T07:58:23.083Z,60
2018-03-23T07:59:03.609Z,65
2018-03-23T07:59:44.115Z,65
2018-03-23T08:00:24.665Z,65
2018-03-23T08:01:05.289Z,65
2018-03-23T08:01:45.846Z,65
2018-03-23T08:02:26.347Z,65
2018-03-23T08:03:06.858Z,70
2018-03-23T08:03:47.376Z,70
2018-03-23T08:04:27.902Z,65
2018-03-23T08:05:08.426Z,65
2018-03-23T08:05:48.968Z,70
2018-03-23T08:06:29.463Z,65
2018-03-23T08:07:10.100Z,65
2018-03-23T08:07:50.584Z,60
2018-03-23T08:08:31.110Z,60
2018-03-23T08:09:11.641Z,60
2018-03-23T08:09:52.137Z,60
2018-03-23T08:10:32.675Z,60
2018-03-23T08:11:13.184Z,55
2018-03-23T08:11:53.707Z,55
2018-03-23T08:12:34.221Z,55
2018-03-23T08:13:14.738Z,55
2018-03-23T08:13:55.239Z,55
2018-03-23T08:14:35.758Z,50
2018-03-23T08:15:16.316Z,50
2018-03-23T08:15:56.815Z,50
2018-03-23T08:16:37.336Z,45
2018-03-23T08:17:17.848Z,45
2018-03-23T08:17:58.374Z,45
2018-03-23T08:18:38.892Z,45
2018-03-23T08:19:19.412Z,45
2018-03-23T08:19:59.960Z,45
2018-03-23T08:20:40.488Z,45
2018-03-23T08:21:21.056Z,45
2018-03-23T08:22:01.585Z,50
2018-03-23T08:22:42.097Z,45
2018-03-23T08:23:22.602Z,45
2018-03-23T08:24:03.116Z,45
2018-03-23T08:24:43.653Z,45
2018-03-23T08:25:24.167Z,45
2018-03-23T08:26:04.722Z,45
2018-03-23T08:26:45.223Z,45
2018-03-23T08:27:25.864Z,50
2018-03-23T08:30:01.228Z,50
2018-03-23T08:30:41.747Z,50
2018-03-23T08:31:22.262Z,50
2018-03-23T08:32:02.761Z,60
2018-03-23T08:32:43.282Z,60
2018-03-23T08:33:23.801Z,60
2018-03-23T08:34:04.320Z,60
2018-03-23T08:34:44.830Z,65
2018-03-23T08:35:25.346Z,70
2018-03-23T08:36:05.834Z,70
2018-03-23T08:36:46.349Z,80
2018-03-23T08:37:26.865Z,75
2018-03-23T08:38:07.371Z,80
2018-03-23T08:38:47.895Z,80
2018-03-23T08:39:28.414Z,85
2018-03-23T08:40:08.945Z,90
2018-03-23T08:40:49.466Z,85
2018-03-23T08:41:29.986Z,95
2018-03-23T08:42:10.498Z,105
2018-03-23T08:42:51.033Z,115
2018-03-23T08:43:31.561Z,120
2018-03-23T08:44:12.082Z,130
2018-03-23T08:44:52.602Z,130
2018-03-23T08:45:33.107Z,120
2018-03-23T08:46:13.630Z,125
2018-03-23T08:46:54.217Z,135
2018-03-23T08:47:34.752Z,130
2018-03-23T08:48:15.260Z,125
2018-03-23T08:50:54.036Z,120
2018-03-23T08:51:34.550Z,120
2018-03-23T08:52:15.076Z,135
2018-03-23T08:52:55.573Z,140
2018-03-23T08:53:36.073Z,140
2018-03-23T08:54:16.607Z,125
2018-03-23T08:54:57.110Z,110
2018-03-23T08:55:37.613Z,120
2018-03-23T08:56:18.165Z,110
2018-03-23T08:56:58.698Z,120
2018-03-23T08:57:39.211Z,120
2018-03-23T08:58:19.725Z,115
2018-03-23T08:59:00.250Z,120
2018-03-23T08:59:40.749Z,115
2018-03-23T09:00:21.256Z,120
2018-03-23T09:01:01.758Z,115
2018-03-23T09:01:42.269Z,120
2018-03-23T09:02:22.837Z,115
2018-03-23T09:03:03.359Z,125
2018-03-23T09:03:43.934Z,145
2018-03-23T09:04:24.577Z,140
2018-03-23T09:05:05.137Z,140
2018-03-23T09:05:45.649Z,135
2018-03-23T09:06:26.159Z,130
2018-03-23T09:07:06.666Z,120
2018-03-23T09:07:47.193Z,130
2018-03-23T09:08:27.763Z,115
2018-03-23T09:09:08.231Z,115
2018-03-23T09:09:48.771Z,135
2018-03-23T09:10:29.282Z,140
2018-03-23T09:11:09.800Z,125
2018-03-23T09:11:50.317Z,130
2018-03-23T09:12:30.841Z,120
2018-03-23T09:13:11.351Z,115
2018-03-23T09:13:51.881Z,115
2018-03-23T09:14:32.378Z,115
2018-03-23T09:15:12.887Z,115
2018-03-23T09:15:53.501Z,110
2018-03-23T09:16:34.026Z,115
2018-03-23T09:17:14.530Z,110
2018-03-23T09:17:55.049Z,120
2018-03-23T09:18:35.571Z,120
2018-03-23T09:19:16.087Z,135
2018-03-23T09:19:56.608Z,140
2018-03-23T09:20:37.203Z,140
2018-03-23T09:21:17.676Z,130
2018-03-23T09:21:58.175Z,125
2018-03-23T09:22:38.694Z,125
2018-03-23T09:23:19.289Z,120
2018-03-23T09:23:59.799Z,115
2018-03-23T09:24:40.320Z,110
2018-03-23T09:25:20.817Z,110
2018-03-23T09:26:01.327Z,110
2018-03-23T09:26:42.004Z,110
2018-03-23T09:27:22.950Z,110
2018-03-23T09:28:03.476Z,110
2018-03-23T09:28:44.038Z,100
2018-03-23T09:29:24.577Z,105
2018-03-23T09:30:05.075Z,110
2018-03-23T09:30:45.580Z,105
2018-03-23T09:31:26.099Z,105
2018-03-23T09:32:06.613Z,115
2018-03-23T09:32:47.148Z,115
2018-03-23T09:33:27.660Z,120
2018-03-23T09:34:08.188Z,125
2018-03-23T09:34:48.705Z,130
2018-03-23T09:35:29.216Z,125
2018-03-23T09:36:09.847Z,130
2018-03-23T09:36:50.374Z,120
2018-03-23T09:37:30.882Z,120
2018-03-23T09:38:11.394Z,130
2018-03-23T09:38:51.918Z,125
2018-03-23T09:39:32.438Z,120
2018-03-23T09:40:12.955Z,120
2018-03-23T09:40:53.459Z,120
2018-03-23T09:41:33.981Z,120
2018-03-23T09:42:14.498Z,120
2018-03-23T09:42:55.007Z,125
2018-03-23T09:43:35.525Z,125
2018-03-23T09:44:16.050Z,120
2018-03-23T09:44:56.566Z,120
2018-03-23T09:45:37.067Z,120
2018-03-23T09:46:17.631Z,125
2018-03-23T09:46:58.137Z,125
2018-03-23T09:47:38.673Z,120
2018-03-23T09:48:19.191Z,120
2018-03-23T09:48:59.704Z,115
2018-03-23T09:49:40.751Z,115
2018-03-23T09:50:21.266Z,110
2018-03-23T09:51:01.792Z,110
2018-03-23T09:51:42.298Z,100